AMAT2: Canadian River Nr Amarillo, TX

                                SHEF ID:       AMAT2     Canadian Rv nr Amarillo, TX
STATION TYPE:
Regulating: Stage = 13.00, Flow = 11996

PRECIP STAGE RIV-FLOW WTR-TEMP CONDUCT BAT-LOAD
in ft cfs F umho/cm volt
Ccp-Rev Ccp-Rev Ccp-Rev Ccp-Rev Ccp-Rev Ccp-Rev
(America/Chicago)
07/21 00:00 ---- 3.26 651 82.44 1 12.63
07/21 01:00 ---- 3.30 667 81.66 1 12.63
07/21 02:00 ---- 3.34 683 81.05 1 12.61
07/21 03:00 ---- 3.37 695 80.44 1 12.60
07/21 04:00 ---- 3.44 723 79.72 1 12.59
07/21 05:00 ---- 3.45 727 79.11 1 12.58
07/21 06:00 ---- 3.45 727 78.75 1 12.57
07/21 07:00 ---- 3.46 731 78.40 1 12.60
07/21 08:00 ---- 3.47 735 78.19 1 12.84
07/21 09:00 ---- 3.52 756 78.28 1 13.26
07/21 10:00 ---- 3.53 760 78.78 1 13.62
07/21 11:00 ---- 3.56 773 79.68 1 13.58
07/21 12:00 ---- 3.57 777 80.87 1 13.55
07/21 13:00 ---- 3.56 773 82.18 1 13.51
07/21 14:00 ---- 3.56 773 83.53 1 13.47
07/21 15:00 ---- 3.58 781 84.76 1 13.43
07/21 16:00 ---- 3.60 790 85.68 1 13.22
07/21 17:00 ---- 3.58 781 85.66 1 13.06
07/21 18:00 ---- 3.59 786 85.57 1 13.24
07/21 19:00 ---- 3.60 790 85.41 1 13.03
07/21 20:00 ---- 3.61 794 84.96 1 12.77
07/21 21:00 ---- 3.62 799 84.20 1 12.62
07/21 22:00 ---- 3.61 794 83.48 1 12.61
07/21 23:00 ---- 3.62 799 82.81 1 12.62
Data processed at Tue 22Jul2025 04:15 GMT

Parsing this webpage?

Checkout our new Data API! CWMSDataAPI (CDA)

Timeseries IDs (TSIDs)

TSIDs used from left to right in the data table
AMAR.Precip-Inc.Total.1Hour.1Hour.Ccp-Rev
AMAR.Stage.Inst.1Hour.0.Ccp-Rev
AMAR.Flow.Inst.1Hour.0.Ccp-Rev
AMAR.Temp-Water.Inst.1Hour.0.Ccp-Rev
AMAR.Cond-Water.Inst.1Hour.0.Ccp-Rev
AMAR.Volt-Battery Load.Inst.1Hour.0.Ccp-Rev

                            

All information presented herein is the property of the government of the United States of America and may be revised or deleted at any time without prior notice. Dissemination of this information without the expressed written consent of the Public Affairs Office, Tulsa District U.S. Army Corps of Engineers is strictly prohibited. These data are gathered electronically and, as presented, have NOT undergone any form of quality control. These data are NOT guaranteed to be valid or correct.